Corinth Corners, Vermont
Current Conditions -  °F | °C
As of 3:51 PM on Monday 22 Dec 2014 (Local Time) from KMPV Reporting Station
Light Snow Light Snow  
Wind Chill: 30°   Ceiling: 1900
Heat Index: 30°   Visibility: 4mi
Dew Point: 26°   Wind: 0mph
Humidity: 85%   Direction: NA
Pressure: 30.32"   Gusts: NA
Location:  44.0361°N, 72.2949°W
Report Text: KMPV 222051Z AUTO 00000KT 4SM -SN BR BKN019 OVC034 M01/M03 A3032 RMK AO2 SNB47 SLP284 P0000 60000 T10111033 55007
Loading
Personal Weather Stations






























Interactive Weather Map New forecast layout! Learn more

10-Day Weather Forecast

Advertisements
Track Severe Weather on mobile